createdAt,value
2023-05-06T00:00:03.590Z,25.30
2023-05-06T00:02:39.773Z,17.33
2023-05-06T00:05:11.004Z,23.58
2023-05-06T00:07:39.380Z,23.23
2023-05-06T00:10:09.636Z,25.17
2023-05-06T00:12:37.732Z,27.30
2023-05-06T00:15:07.462Z,26.08
2023-05-06T00:17:36.043Z,32.20
2023-05-06T00:20:04.589Z,33.22
2023-05-06T00:22:32.658Z,36.17
2023-05-06T00:25:00.771Z,35.35
2023-05-06T00:27:30.258Z,29.05
2023-05-06T00:29:58.736Z,31.90
2023-05-06T00:32:26.826Z,32.45
2023-05-06T00:34:54.998Z,33.88
2023-05-06T00:37:23.044Z,28.63
2023-05-06T00:39:51.030Z,32.17
2023-05-06T00:42:19.401Z,34.38
2023-05-06T00:44:48.808Z,33.28
2023-05-06T00:47:18.598Z,41.72
2023-05-06T00:49:48.834Z,32.85
2023-05-06T00:52:18.618Z,35.40
2023-05-06T00:54:46.780Z,42.75
2023-05-06T00:57:17.014Z,42.00
2023-05-06T00:59:45.461Z,36.10
2023-05-06T01:02:14.909Z,38.35
2023-05-06T01:04:43.878Z,36.63
2023-05-06T01:07:23.270Z,34.58
2023-05-06T01:09:56.987Z,36.15
2023-05-06T01:12:30.468Z,36.67
2023-05-06T01:15:08.439Z,38.85
2023-05-06T01:17:44.587Z,37.60
2023-05-06T01:20:16.267Z,39.95
2023-05-06T01:22:46.683Z,44.17
2023-05-06T01:25:21.189Z,38.75
2023-05-06T01:27:49.523Z,34.20
2023-05-06T01:30:19.010Z,37.45
2023-05-06T01:32:58.922Z,35.60
2023-05-06T01:35:36.524Z,38.83
2023-05-06T01:38:13.772Z,39.65
2023-05-06T01:40:45.211Z,37.35
2023-05-06T01:43:15.543Z,34.15
2023-05-06T01:45:49.441Z,37.67
2023-05-06T01:48:18.132Z,34.65
2023-05-06T01:50:46.462Z,37.85
2023-05-06T01:53:14.502Z,37.33
2023-05-06T01:55:43.996Z,36.25
2023-05-06T01:58:12.103Z,37.25
2023-05-06T02:00:42.598Z,37.75
2023-05-06T02:03:11.013Z,42.50
2023-05-06T02:05:39.397Z,37.33
2023-05-06T02:08:08.170Z,42.75
2023-05-06T02:10:36.279Z,43.35
2023-05-06T02:13:10.250Z,35.15
2023-05-06T02:15:38.690Z,40.42
2023-05-06T02:18:08.927Z,42.70
2023-05-06T02:20:36.961Z,46.78
2023-05-06T02:23:05.048Z,39.00
2023-05-06T02:25:33.091Z,43.92
2023-05-06T02:28:01.154Z,42.22
2023-05-06T02:30:31.138Z,42.63
2023-05-06T02:32:59.262Z,38.53
2023-05-06T02:35:27.420Z,41.35
2023-05-06T02:37:55.803Z,44.50
2023-05-06T02:40:23.802Z,38.38
2023-05-06T02:42:52.063Z,45.08
2023-05-06T02:45:20.339Z,42.88
2023-05-06T02:47:49.767Z,41.78
2023-05-06T02:50:18.072Z,40.85
2023-05-06T02:52:46.210Z,42.53
2023-05-06T02:55:14.343Z,45.88
2023-05-06T02:57:42.446Z,40.83
2023-05-06T03:00:13.911Z,41.20
2023-05-06T03:02:42.522Z,44.25
2023-05-06T03:05:12.421Z,44.67
2023-05-06T03:07:40.830Z,42.22
2023-05-06T03:10:09.811Z,36.72
2023-05-06T03:12:39.928Z,42.25
2023-05-06T03:15:09.173Z,49.58
2023-05-06T03:17:39.032Z,45.15
2023-05-06T03:20:11.760Z,50.08
2023-05-06T03:22:44.117Z,47.38
2023-05-06T03:25:12.502Z,44.80
2023-05-06T03:27:42.485Z,43.47
2023-05-06T03:30:18.148Z,52.05
2023-05-06T03:32:49.078Z,52.22
2023-05-06T03:35:24.872Z,46.08
2023-05-06T03:37:56.870Z,52.35
2023-05-06T03:42:58.637Z,46.83
2023-05-06T03:45:26.859Z,46.55
2023-05-06T03:47:58.453Z,46.88
2023-05-06T03:50:29.902Z,44.90
2023-05-06T03:52:58.632Z,51.60
2023-05-06T03:55:29.566Z,48.15
2023-05-06T03:57:58.153Z,48.58
2023-05-06T04:00:26.857Z,55.03
2023-05-06T04:02:56.055Z,58.70
2023-05-06T04:05:35.425Z,49.08
2023-05-06T04:08:06.971Z,54.58
2023-05-06T04:10:39.925Z,49.15
2023-05-06T04:13:14.043Z,49.92
2023-05-06T04:15:45.231Z,52.42
2023-05-06T04:18:19.921Z,48.70
2023-05-06T04:20:58.120Z,51.92
2023-05-06T04:23:26.823Z,55.00
2023-05-06T04:25:59.296Z,54.25
2023-05-06T04:28:28.863Z,51.47
2023-05-06T04:30:57.002Z,50.35
2023-05-06T04:33:32.808Z,48.80
2023-05-06T04:36:05.656Z,45.53
2023-05-06T04:38:37.368Z,54.70
2023-05-06T04:41:06.584Z,50.75
2023-05-06T04:43:34.669Z,48.50
2023-05-06T04:46:10.945Z,47.75
2023-05-06T04:48:42.508Z,55.90
2023-05-06T04:51:14.352Z,53.00
2023-05-06T04:53:42.822Z,48.28
2023-05-06T04:56:11.091Z,52.20
2023-05-06T04:58:39.161Z,50.55
2023-05-06T05:01:10.623Z,44.63
2023-05-06T05:03:38.799Z,47.83
2023-05-06T05:06:08.385Z,51.05
2023-05-06T05:08:38.534Z,48.15
2023-05-06T05:11:09.058Z,41.70
2023-05-06T05:13:37.412Z,40.25
2023-05-06T05:16:07.676Z,42.70
2023-05-06T05:18:38.929Z,40.22
2023-05-06T05:21:14.621Z,38.40
2023-05-06T05:23:44.156Z,39.00
2023-05-06T05:26:12.425Z,43.70
2023-05-06T05:28:42.029Z,43.15
2023-05-06T05:31:10.620Z,42.00
2023-05-06T05:33:40.190Z,41.95
2023-05-06T05:36:15.379Z,41.15
2023-05-06T05:38:47.722Z,38.03
2023-05-06T05:41:17.426Z,42.35
2023-05-06T05:43:48.642Z,40.20
2023-05-06T05:46:17.776Z,49.85
2023-05-06T05:48:48.467Z,37.17
2023-05-06T05:51:17.006Z,35.45
2023-05-06T05:53:47.310Z,39.72
2023-05-06T05:56:16.667Z,34.50
2023-05-06T05:58:47.634Z,32.53
2023-05-06T06:01:16.020Z,28.75
2023-05-06T06:03:44.583Z,30.23
2023-05-06T06:06:12.942Z,28.23
2023-05-06T06:08:41.567Z,23.83
2023-05-06T06:11:12.418Z,31.75
2023-05-06T06:13:42.526Z,24.95
2023-05-06T06:16:11.889Z,22.38
2023-05-06T06:18:40.040Z,22.25
2023-05-06T06:21:08.313Z,25.85
2023-05-06T06:23:37.102Z,21.90
2023-05-06T06:26:08.352Z,20.05
2023-05-06T06:28:38.650Z,27.88
2023-05-06T06:31:06.793Z,20.63
2023-05-06T06:33:34.961Z,18.38
2023-05-06T06:36:03.163Z,20.65
2023-05-06T06:38:31.303Z,21.00
2023-05-06T06:40:59.454Z,23.98
2023-05-06T06:43:27.527Z,24.45
2023-05-06T06:45:57.269Z,23.20
2023-05-06T06:48:25.515Z,24.33
2023-05-06T06:50:53.611Z,20.20
2023-05-06T06:53:21.926Z,25.08
2023-05-06T06:55:50.009Z,20.75
2023-05-06T06:58:18.113Z,17.88
2023-05-06T07:00:46.292Z,18.38
2023-05-06T07:03:19.313Z,20.45
2023-05-06T07:05:47.575Z,24.73
2023-05-06T07:08:16.991Z,26.13
2023-05-06T07:10:45.116Z,25.00
2023-05-06T07:13:13.229Z,19.40
2023-05-06T07:15:41.392Z,20.77
2023-05-06T07:18:10.536Z,23.30
2023-05-06T07:20:40.098Z,23.25
2023-05-06T07:23:08.265Z,25.10
2023-05-06T07:25:36.388Z,21.60
2023-05-06T07:28:04.955Z,25.60
2023-05-06T07:30:38.310Z,23.33
2023-05-06T07:33:06.503Z,23.02
2023-05-06T07:35:34.696Z,19.33
2023-05-06T07:38:04.212Z,21.27
2023-05-06T07:40:32.473Z,23.30
2023-05-06T07:43:00.551Z,23.77
2023-05-06T07:45:28.985Z,21.00
2023-05-06T07:47:57.423Z,26.35
2023-05-06T07:50:25.835Z,25.02
2023-05-06T07:52:53.895Z,23.38
2023-05-06T07:55:23.326Z,22.88
2023-05-06T07:57:51.460Z,25.33
2023-05-06T08:00:19.673Z,23.70
2023-05-06T08:02:48.611Z,24.63
2023-05-06T08:05:17.452Z,26.10
2023-05-06T08:07:47.590Z,30.30
2023-05-06T08:10:15.730Z,25.20
2023-05-06T08:12:45.278Z,29.80
2023-05-06T08:15:13.578Z,26.40
2023-05-06T08:17:41.979Z,33.25
2023-05-06T08:20:13.177Z,30.27
2023-05-06T08:22:41.522Z,30.65
2023-05-06T08:25:10.713Z,29.40
2023-05-06T08:27:39.599Z,31.73
2023-05-06T08:30:10.586Z,28.58
2023-05-06T08:32:39.572Z,28.77
2023-05-06T08:35:11.170Z,26.77
2023-05-06T08:37:39.480Z,27.05
2023-05-06T08:40:16.768Z,27.63
2023-05-06T08:42:47.515Z,31.25
2023-05-06T08:45:18.418Z,27.27
2023-05-06T08:47:47.334Z,32.70
2023-05-06T08:50:15.656Z,31.80
2023-05-06T08:52:43.803Z,26.45
2023-05-06T08:55:12.656Z,31.15
2023-05-06T08:57:41.559Z,29.05
2023-05-06T09:00:11.049Z,29.15
2023-05-06T09:02:42.806Z,31.48
2023-05-06T09:05:12.394Z,28.33
2023-05-06T09:07:40.833Z,29.83
2023-05-06T09:10:13.198Z,27.65
2023-05-06T09:12:41.639Z,28.95
2023-05-06T09:15:11.862Z,29.05
2023-05-06T09:17:41.779Z,24.17
2023-05-06T09:20:13.382Z,23.23
2023-05-06T09:22:42.151Z,24.42
2023-05-06T09:25:11.872Z,22.95
2023-05-06T09:27:40.755Z,23.02
2023-05-06T09:30:12.652Z,21.30
2023-05-06T09:32:42.810Z,20.03
2023-05-06T09:35:12.567Z,22.75
2023-05-06T09:37:40.877Z,20.98
2023-05-06T09:40:10.994Z,24.50
2023-05-06T09:42:39.327Z,22.33
2023-05-06T09:45:10.939Z,23.25
2023-05-06T09:47:44.716Z,17.45
2023-05-06T09:50:15.296Z,20.70
2023-05-06T09:52:45.976Z,16.00
2023-05-06T09:55:14.510Z,18.90
2023-05-06T09:57:46.003Z,17.00
2023-05-06T10:00:16.521Z,17.02
2023-05-06T10:02:47.863Z,19.67
2023-05-06T10:05:17.548Z,19.38
2023-05-06T10:07:49.680Z,15.05
2023-05-06T10:10:18.098Z,15.13
2023-05-06T10:12:50.837Z,15.35
2023-05-06T10:15:18.998Z,16.45
2023-05-06T10:17:50.384Z,15.88
2023-05-06T10:20:20.312Z,14.45
2023-05-06T10:23:00.468Z,16.63
2023-05-06T10:25:37.236Z,19.10
2023-05-06T10:28:07.262Z,17.08
2023-05-06T10:30:39.026Z,18.00
2023-05-06T10:33:10.648Z,17.83
2023-05-06T10:35:47.140Z,17.60
2023-05-06T10:38:20.789Z,15.52
2023-05-06T10:40:50.484Z,19.58
2023-05-06T10:43:25.663Z,19.77
2023-05-06T10:46:10.652Z,19.55
2023-05-06T10:49:01.043Z,14.35
2023-05-06T10:51:29.743Z,17.60
2023-05-06T10:54:05.537Z,18.38
2023-05-06T10:56:35.291Z,16.65
2023-05-06T10:59:07.791Z,17.90
2023-05-06T11:01:37.077Z,15.02
2023-05-06T11:04:11.967Z,16.48
2023-05-06T11:06:42.266Z,13.85
2023-05-06T11:09:18.720Z,14.40
2023-05-06T11:11:52.776Z,14.35
2023-05-06T11:14:29.137Z,13.27
2023-05-06T11:16:58.691Z,14.50
2023-05-06T11:19:30.035Z,13.52
2023-05-06T11:21:59.356Z,15.65
2023-05-06T11:24:28.906Z,17.30
2023-05-06T11:26:57.712Z,12.50
2023-05-06T11:29:26.409Z,12.50
2023-05-06T11:31:54.793Z,10.07
2023-05-06T11:34:25.992Z,10.27
2023-05-06T11:36:59.522Z,14.40
2023-05-06T11:39:30.524Z,10.40
2023-05-06T11:42:02.899Z,11.45
2023-05-06T11:44:33.152Z,8.45
2023-05-06T11:47:03.112Z,9.93
2023-05-06T11:49:31.425Z,9.82
2023-05-06T11:52:00.897Z,12.50
2023-05-06T11:54:29.010Z,9.10
2023-05-06T11:56:58.014Z,11.75
2023-05-06T11:59:33.625Z,14.82
2023-05-06T12:02:04.273Z,12.23
2023-05-06T12:04:39.666Z,8.57
2023-05-06T12:07:10.806Z,13.02
2023-05-06T12:09:40.547Z,11.32
2023-05-06T12:12:10.098Z,9.98
2023-05-06T12:14:39.027Z,10.18
2023-05-06T12:17:07.772Z,10.30
2023-05-06T12:19:36.921Z,11.20
2023-05-06T12:22:20.128Z,10.18
2023-05-06T12:24:48.654Z,11.55
2023-05-06T12:27:29.424Z,8.68
2023-05-06T12:29:57.659Z,11.93
2023-05-06T12:32:25.790Z,10.82
2023-05-06T12:34:54.091Z,13.82
2023-05-06T12:37:31.221Z,11.32
2023-05-06T12:39:59.653Z,12.18
2023-05-06T12:42:28.314Z,9.63
2023-05-06T12:44:56.863Z,12.27
2023-05-06T12:47:26.376Z,11.20
2023-05-06T12:49:56.034Z,9.45
2023-05-06T12:52:26.194Z,8.63
2023-05-06T12:54:55.948Z,9.10
2023-05-06T12:57:24.326Z,9.20
2023-05-06T12:59:53.713Z,12.07
2023-05-06T13:02:21.851Z,6.50
2023-05-06T13:04:50.942Z,11.05
2023-05-06T13:07:19.159Z,9.63
2023-05-06T13:09:47.215Z,8.35
2023-05-06T13:12:16.833Z,7.50
2023-05-06T13:14:44.921Z,13.15
2023-05-06T13:17:15.709Z,7.40
2023-05-06T13:19:44.019Z,11.25
2023-05-06T13:22:12.167Z,9.30
2023-05-06T13:24:40.711Z,15.27
2023-05-06T13:27:08.856Z,6.30
2023-05-06T13:29:38.444Z,7.47
2023-05-06T13:32:08.629Z,6.50
2023-05-06T13:34:37.274Z,7.20
2023-05-06T13:37:05.489Z,11.00
2023-05-06T13:39:36.072Z,22.50
2023-05-06T13:42:06.651Z,13.57
2023-05-06T13:44:36.324Z,6.27
2023-05-06T13:47:06.095Z,29.48
2023-05-06T13:49:34.416Z,22.02
2023-05-06T13:52:02.475Z,11.75
2023-05-06T13:54:30.627Z,7.68
2023-05-06T13:56:59.253Z,9.38
2023-05-06T13:59:27.392Z,9.80
2023-05-06T14:01:56.383Z,10.98
2023-05-06T14:04:25.967Z,9.80
2023-05-06T14:06:55.021Z,21.00
2023-05-06T14:09:23.418Z,11.48
2023-05-06T14:11:51.564Z,10.00
2023-05-06T14:14:21.985Z,13.43
2023-05-06T14:16:51.706Z,15.40
2023-05-06T14:19:20.256Z,13.13
2023-05-06T14:21:50.905Z,13.15
2023-05-06T14:24:18.971Z,11.52
2023-05-06T14:26:47.115Z,11.05
2023-05-06T14:29:15.398Z,10.98
2023-05-06T14:31:43.511Z,11.98
2023-05-06T14:34:11.669Z,11.82
2023-05-06T14:36:39.764Z,9.02
2023-05-06T14:39:09.313Z,11.95
2023-05-06T14:41:37.485Z,9.38
2023-05-06T14:44:08.053Z,9.45
2023-05-06T14:46:36.239Z,10.55
2023-05-06T14:49:04.331Z,8.45
2023-05-06T14:51:34.251Z,10.73
2023-05-06T14:54:02.707Z,9.15
2023-05-06T14:56:32.133Z,11.75
2023-05-06T14:59:01.909Z,10.05
2023-05-06T15:01:33.434Z,8.10
2023-05-06T15:04:01.577Z,8.00
2023-05-06T15:06:29.684Z,8.15
2023-05-06T15:08:57.805Z,6.22
2023-05-06T15:11:25.890Z,6.13
2023-05-06T15:13:55.484Z,6.35
2023-05-06T15:16:23.760Z,11.48
2023-05-06T15:18:51.850Z,14.20
2023-05-06T15:21:20.196Z,11.18
2023-05-06T15:23:51.403Z,11.15
2023-05-06T15:26:19.843Z,8.73
2023-05-06T15:28:47.900Z,8.02
2023-05-06T15:31:17.471Z,10.18
2023-05-06T15:33:48.382Z,9.07
2023-05-06T15:36:18.870Z,8.60
2023-05-06T15:39:01.158Z,5.95
2023-05-06T15:41:30.619Z,9.23
2023-05-06T15:43:59.786Z,7.32
2023-05-06T15:46:30.729Z,7.28
2023-05-06T15:49:17.886Z,9.90
2023-05-06T15:51:47.168Z,7.45
2023-05-06T15:54:18.214Z,7.80
2023-05-06T15:56:46.495Z,8.02
2023-05-06T15:59:14.572Z,7.20
2023-05-06T16:04:18.161Z,9.93
2023-05-06T16:06:47.611Z,10.05
2023-05-06T16:09:15.825Z,9.20
2023-05-06T16:11:44.013Z,8.65
2023-05-06T16:14:12.183Z,11.10
2023-05-06T16:16:40.471Z,9.10
2023-05-06T16:19:10.612Z,13.77
2023-05-06T16:21:38.736Z,9.52
2023-05-06T16:24:07.149Z,10.00
2023-05-06T16:26:35.714Z,8.85
2023-05-06T16:29:03.878Z,9.80
2023-05-06T16:31:32.930Z,11.02
2023-05-06T16:34:01.029Z,10.65
2023-05-06T16:36:33.019Z,9.00
2023-05-06T16:39:01.557Z,11.17
2023-05-06T16:41:29.989Z,11.10
2023-05-06T16:43:58.556Z,8.55
2023-05-06T16:46:28.638Z,9.82
2023-05-06T16:48:56.820Z,9.90
2023-05-06T16:51:25.103Z,12.60
2023-05-06T16:53:54.491Z,10.52
2023-05-06T16:56:23.336Z,11.65
2023-05-06T16:58:51.405Z,11.07
2023-05-06T17:01:19.689Z,8.95
2023-05-06T17:03:47.808Z,8.88
2023-05-06T17:06:15.896Z,9.40
2023-05-06T17:08:43.975Z,8.55
2023-05-06T17:11:13.602Z,11.35
2023-05-06T17:13:41.695Z,10.32
2023-05-06T17:16:09.833Z,10.38
2023-05-06T17:18:37.933Z,10.02
2023-05-06T17:21:08.792Z,10.50
2023-05-06T17:23:39.102Z,11.63
2023-05-06T17:26:10.312Z,10.93
2023-05-06T17:28:40.114Z,10.85
2023-05-06T17:31:08.314Z,11.55
2023-05-06T17:33:36.588Z,11.52
2023-05-06T17:36:04.872Z,15.10
2023-05-06T17:38:33.334Z,10.23
2023-05-06T17:41:01.723Z,10.90
2023-05-06T17:43:29.907Z,11.13
2023-05-06T17:46:01.726Z,11.98
2023-05-06T17:48:29.918Z,12.15
2023-05-06T17:51:01.889Z,11.88
2023-05-06T17:53:32.205Z,11.53
2023-05-06T17:56:00.440Z,10.10
2023-05-06T17:58:28.504Z,11.68
2023-05-06T18:00:57.391Z,12.82
2023-05-06T18:03:27.108Z,11.65
2023-05-06T18:05:55.501Z,12.57
2023-05-06T18:08:23.625Z,13.25
2023-05-06T18:10:51.909Z,15.10
2023-05-06T18:13:20.214Z,11.60
2023-05-06T18:15:48.654Z,13.15
2023-05-06T18:18:19.114Z,13.80
2023-05-06T18:20:48.656Z,12.23
2023-05-06T18:23:16.752Z,15.52
2023-05-06T18:25:44.982Z,16.67
2023-05-06T18:28:18.556Z,12.02
2023-05-06T18:30:48.396Z,15.77
2023-05-06T18:33:21.397Z,14.25
2023-05-06T18:35:51.344Z,15.88
2023-05-06T18:38:19.482Z,19.38
2023-05-06T18:40:48.406Z,19.38
2023-05-06T18:43:16.544Z,17.45
2023-05-06T18:45:44.849Z,16.88
2023-05-06T18:48:13.782Z,17.48
2023-05-06T18:50:42.732Z,18.38
2023-05-06T18:53:12.489Z,19.35
2023-05-06T18:55:40.710Z,19.95
2023-05-06T18:58:09.194Z,21.95
2023-05-06T19:00:37.342Z,23.08
2023-05-06T19:03:05.661Z,20.90
2023-05-06T19:05:33.808Z,19.70
2023-05-06T19:08:01.855Z,25.73
2023-05-06T19:10:31.426Z,24.73
2023-05-06T19:13:05.432Z,24.52
2023-05-06T19:15:36.929Z,24.48
2023-05-06T19:18:13.026Z,23.50
2023-05-06T19:20:50.652Z,24.38
2023-05-06T19:23:20.756Z,24.98
2023-05-06T19:25:50.328Z,27.58
2023-05-06T19:28:18.432Z,27.40
2023-05-06T19:30:48.143Z,27.60
2023-05-06T19:33:16.523Z,25.73
2023-05-06T19:35:46.822Z,28.20
2023-05-06T19:38:14.944Z,24.17
2023-05-06T19:40:43.111Z,27.48
2023-05-06T19:43:12.553Z,28.73
2023-05-06T19:45:41.720Z,27.98
2023-05-06T19:48:12.770Z,28.52
2023-05-06T19:50:41.264Z,32.78
2023-05-06T19:53:09.610Z,32.63
2023-05-06T19:55:37.816Z,33.85
2023-05-06T19:58:05.879Z,31.10
2023-05-06T20:00:35.601Z,31.23
2023-05-06T20:03:03.978Z,30.98
2023-05-06T20:05:32.188Z,32.60
2023-05-06T20:08:03.411Z,38.60
2023-05-06T20:10:31.669Z,32.55
2023-05-06T20:13:00.183Z,35.45
2023-05-06T20:15:28.455Z,33.88
2023-05-06T20:18:00.618Z,33.70
2023-05-06T20:20:34.227Z,40.78
2023-05-06T20:23:02.850Z,37.50
2023-05-06T20:25:31.223Z,35.38
2023-05-06T20:27:59.724Z,34.22
2023-05-06T20:30:28.034Z,40.33
2023-05-06T20:32:56.221Z,40.17
2023-05-06T20:35:25.995Z,38.83
2023-05-06T20:37:57.202Z,39.00
2023-05-06T20:40:28.462Z,38.92
2023-05-06T20:42:56.541Z,44.60
2023-05-06T20:45:24.852Z,46.17
2023-05-06T20:47:53.025Z,40.90
2023-05-06T20:50:24.955Z,41.50
2023-05-06T20:52:54.323Z,40.42
2023-05-06T20:55:23.311Z,49.70
2023-05-06T20:57:53.868Z,41.47
2023-05-06T21:00:22.730Z,42.03
2023-05-06T21:02:50.887Z,50.42
2023-05-06T21:05:19.008Z,51.38
2023-05-06T21:07:50.525Z,47.55
2023-05-06T21:10:18.771Z,46.63
2023-05-06T21:12:50.799Z,46.83
2023-05-06T21:15:18.990Z,51.53
2023-05-06T21:17:47.265Z,52.78
2023-05-06T21:20:16.503Z,47.53
2023-05-06T21:22:44.603Z,45.92
2023-05-06T21:25:14.269Z,49.05
2023-05-06T21:27:42.328Z,45.40
2023-05-06T21:30:11.116Z,45.42
2023-05-06T21:32:41.863Z,46.25
2023-05-06T21:35:10.518Z,48.10
2023-05-06T21:37:38.829Z,48.78
2023-05-06T21:40:10.325Z,51.80
2023-05-06T21:42:39.914Z,53.10
2023-05-06T21:45:09.119Z,52.83
2023-05-06T21:47:37.696Z,49.67
2023-05-06T21:50:06.714Z,49.33
2023-05-06T21:52:34.820Z,51.92
2023-05-06T21:55:02.866Z,45.47
2023-05-06T21:57:30.983Z,46.30
2023-05-06T22:00:00.880Z,44.58
2023-05-06T22:02:29.048Z,40.00
2023-05-06T22:04:57.227Z,43.70
2023-05-06T22:07:25.298Z,42.60
2023-05-06T22:09:53.387Z,46.67
2023-05-06T22:12:21.755Z,47.13
2023-05-06T22:14:49.921Z,46.70
2023-05-06T22:17:19.443Z,43.20
2023-05-06T22:19:47.616Z,47.30
2023-05-06T22:22:16.435Z,43.70
2023-05-06T22:24:44.569Z,48.13
2023-05-06T22:27:12.837Z,47.83
2023-05-06T22:29:41.065Z,47.53
2023-05-06T22:32:09.278Z,48.25
2023-05-06T22:34:38.814Z,44.92
2023-05-06T22:37:10.411Z,42.30
2023-05-06T22:39:39.068Z,45.17
2023-05-06T22:42:07.189Z,42.58
2023-05-06T22:44:35.377Z,40.95
2023-05-06T22:47:03.555Z,41.47
2023-05-06T22:49:39.189Z,37.80
2023-05-06T22:52:09.203Z,38.03
2023-05-06T22:54:37.347Z,40.80
2023-05-06T22:57:05.586Z,38.25
2023-05-06T22:59:33.679Z,45.03
2023-05-06T23:02:01.774Z,40.38
2023-05-06T23:04:30.173Z,39.65
2023-05-06T23:06:58.299Z,42.35
2023-05-06T23:09:27.701Z,39.08
2023-05-06T23:11:56.023Z,36.15
2023-05-06T23:14:24.051Z,35.75
2023-05-06T23:16:52.233Z,39.78
2023-05-06T23:19:21.406Z,37.83
2023-05-06T23:21:52.100Z,37.35
2023-05-06T23:24:20.614Z,36.53
2023-05-06T23:26:50.148Z,39.33
2023-05-06T23:29:18.221Z,33.63
2023-05-06T23:31:46.644Z,34.95
2023-05-06T23:34:14.714Z,33.60
2023-05-06T23:36:43.089Z,37.30
2023-05-06T23:39:12.211Z,33.25
2023-05-06T23:41:40.610Z,34.00
2023-05-06T23:44:10.175Z,34.90
2023-05-06T23:46:39.298Z,34.40
2023-05-06T23:49:10.955Z,32.38
2023-05-06T23:51:39.026Z,38.97
2023-05-06T23:54:07.129Z,31.50
2023-05-06T23:56:35.883Z,34.78
2023-05-06T23:59:04.116Z,30.90
